createdAt,value
2022-09-20T00:03:40.021Z,2.7
2022-09-20T00:18:49.854Z,2.6
2022-09-20T00:33:59.386Z,2.6
2022-09-20T00:49:08.911Z,3.3
2022-09-20T01:04:18.654Z,2.6
2022-09-20T01:19:28.339Z,2.4
2022-09-20T01:34:38.252Z,2.9
2022-09-20T01:49:47.799Z,2.9
2022-09-20T02:04:56.979Z,2.3
2022-09-20T02:20:06.249Z,2.9
2022-09-20T02:35:15.678Z,2.9
2022-09-20T02:50:24.630Z,3.6
2022-09-20T03:05:33.828Z,3.6
2022-09-20T03:20:43.179Z,3.3
2022-09-20T03:35:52.618Z,3.8
2022-09-20T03:51:02.247Z,4.3
2022-09-20T04:06:11.493Z,5.3
2022-09-20T04:21:20.742Z,5.7
2022-09-20T04:36:29.853Z,5.9
2022-09-20T04:51:39.413Z,6.8
2022-09-20T05:06:48.882Z,7.1
2022-09-20T05:21:58.434Z,6.7
2022-09-20T05:37:07.798Z,5.4
2022-09-20T05:52:17.265Z,6.5
2022-09-20T06:07:27.076Z,6.3
2022-09-20T06:22:36.657Z,6
2022-09-20T06:37:46.027Z,6
2022-09-20T06:52:55.464Z,4.4
2022-09-20T07:08:05.117Z,4
2022-09-20T07:23:14.596Z,4.8
2022-09-20T07:38:24.402Z,4.3
2022-09-20T07:53:34.775Z,4
2022-09-20T08:08:44.295Z,4.3
2022-09-20T08:23:54.081Z,4.2
2022-09-20T08:55:14.782Z,3.4
2022-09-20T09:10:25.124Z,3.7
2022-09-20T09:25:35.121Z,3.2
2022-09-20T09:40:45.457Z,3.5
2022-09-20T09:55:55.115Z,4.1
2022-09-20T10:11:04.983Z,3.2
2022-09-20T10:26:14.811Z,3.2
2022-09-20T10:41:25.289Z,2.9
2022-09-20T10:56:35.421Z,2.7
2022-09-20T11:11:44.410Z,3.1
2022-09-20T11:26:54.400Z,2.5
2022-09-20T11:42:04.122Z,2.1
2022-09-20T11:57:13.669Z,1.9
2022-09-20T12:12:24.625Z,2.1
2022-09-20T12:27:34.913Z,1.7
2022-09-20T12:42:44.466Z,2.6
2022-09-20T12:57:54.702Z,1.7
2022-09-20T13:13:02.887Z,1.9
2022-09-20T13:28:11.792Z,1.6
2022-09-20T13:43:24.973Z,1.5
2022-09-20T13:58:35.242Z,2
2022-09-20T14:13:44.592Z,1.4
2022-09-20T14:28:54.124Z,1.6
2022-09-20T14:44:03.978Z,1.4
2022-09-20T14:59:13.572Z,1.5
2022-09-20T15:14:23.504Z,1.3
2022-09-20T15:29:33.467Z,1.8
2022-09-20T15:44:42.975Z,1.2
2022-09-20T15:59:52.454Z,1.6
2022-09-20T16:15:01.426Z,1.7
2022-09-20T16:30:11.088Z,2.2
2022-09-20T16:45:20.145Z,2
2022-09-20T17:00:29.647Z,1.9
2022-09-20T17:15:38.829Z,2
2022-09-20T17:30:47.818Z,2.6
2022-09-20T17:45:57.294Z,4.1
2022-09-20T18:01:12.912Z,2.3
2022-09-20T18:16:22.834Z,2.9
2022-09-20T18:31:32.812Z,3.3
2022-09-20T18:46:42.216Z,2.8
2022-09-20T19:01:52.967Z,3.5
2022-09-20T19:17:04.199Z,3.4
2022-09-20T19:32:13.465Z,3.7
2022-09-20T19:47:22.853Z,4.4
2022-09-20T20:02:32.266Z,3.5
2022-09-20T20:17:41.729Z,3.7
2022-09-20T20:32:50.930Z,3.7
2022-09-20T20:48:00.155Z,3.6
2022-09-20T21:03:09.282Z,3.5
2022-09-20T21:18:19.235Z,3.2
2022-09-20T21:33:28.827Z,2.7
2022-09-20T21:48:38.299Z,3.1
2022-09-20T22:03:48.101Z,3.8
2022-09-20T22:18:57.550Z,3.4
2022-09-20T22:37:36.412Z,5.5
2022-09-20T22:52:47.497Z,4.7
2022-09-20T23:07:56.494Z,4.5
2022-09-20T23:23:05.645Z,5.3
2022-09-20T23:38:14.925Z,4.7
2022-09-20T23:53:24.543Z,4.1
